Bloomingdale, Ohio
Current Conditions -  °F | °C
As of 11:53 AM on Thursday 23 Oct 2014 (Local Time) from KHLG Reporting Station
Scattered Clouds Scattered Clouds  
Wind Chill: 53°   Ceiling: Unl
Heat Index: 53°   Visibility: 10mi
Dew Point: 42°   Wind: 9mph
Humidity: 66%   Direction: 310°NW
Pressure: 30.15"   Gusts: NA
Location:  40.34°N, 80.82°W
Report Text: KHLG 231553Z 31008KT 280V340 10SM SCT023 12/06 A3015 RMK AO2 SLP215 T01170056
Loading
Personal Weather Stations






























Interactive Weather Map
Tropical Storm Tracking
New forecast layout! Learn more

10-Day Weather Forecast

Advertisements
Track Severe Weather on mobile